sensor_id;sensor_type;location;lat;lon;timestamp;temperature;humidity
67769;DHT22;54569;52.018;5.584;2023-04-27T00:00:06;5.40;68.00
67769;DHT22;54569;52.018;5.584;2023-04-27T00:02:35;5.30;68.10
67769;DHT22;54569;52.018;5.584;2023-04-27T00:05:02;5.30;68.10
67769;DHT22;54569;52.018;5.584;2023-04-27T00:07:27;5.30;68.20
67769;DHT22;54569;52.018;5.584;2023-04-27T00:09:53;5.30;68.20
67769;DHT22;54569;52.018;5.584;2023-04-27T00:12:19;5.20;68.10
67769;DHT22;54569;52.018;5.584;2023-04-27T00:14:44;5.20;68.20
67769;DHT22;54569;52.018;5.584;2023-04-27T00:17:10;5.20;68.30
67769;DHT22;54569;52.018;5.584;2023-04-27T00:19:36;5.20;68.30
67769;DHT22;54569;52.018;5.584;2023-04-27T00:22:01;5.20;68.30
67769;DHT22;54569;52.018;5.584;2023-04-27T00:24:27;5.20;68.60
67769;DHT22;54569;52.018;5.584;2023-04-27T00:26:53;5.10;68.70
67769;DHT22;54569;52.018;5.584;2023-04-27T00:29:18;5.10;68.80
67769;DHT22;54569;52.018;5.584;2023-04-27T00:31:44;5.10;68.80
67769;DHT22;54569;52.018;5.584;2023-04-27T00:34:10;5.00;68.90
67769;DHT22;54569;52.018;5.584;2023-04-27T00:36:36;5.00;69.00
67769;DHT22;54569;52.018;5.584;2023-04-27T00:39:02;5.00;69.00
67769;DHT22;54569;52.018;5.584;2023-04-27T00:41:30;5.00;69.00
67769;DHT22;54569;52.018;5.584;2023-04-27T00:43:57;4.90;69.00
67769;DHT22;54569;52.018;5.584;2023-04-27T00:46:23;4.90;69.00
67769;DHT22;54569;52.018;5.584;2023-04-27T00:48:49;4.90;69.00
67769;DHT22;54569;52.018;5.584;2023-04-27T00:51:15;4.90;69.00
67769;DHT22;54569;52.018;5.584;2023-04-27T00:53:41;4.90;69.10
67769;DHT22;54569;52.018;5.584;2023-04-27T00:56:07;4.90;69.20
67769;DHT22;54569;52.018;5.584;2023-04-27T00:58:33;4.90;69.30
67769;DHT22;54569;52.018;5.584;2023-04-27T01:00:59;4.80;69.40
67769;DHT22;54569;52.018;5.584;2023-04-27T01:03:26;4.80;69.50
67769;DHT22;54569;52.018;5.584;2023-04-27T01:05:51;4.80;69.60
67769;DHT22;54569;52.018;5.584;2023-04-27T01:08:17;4.80;69.70
67769;DHT22;54569;52.018;5.584;2023-04-27T01:10:43;4.70;69.70
67769;DHT22;54569;52.018;5.584;2023-04-27T01:13:09;4.70;69.90
67769;DHT22;54569;52.018;5.584;2023-04-27T01:15:36;4.60;69.90
67769;DHT22;54569;52.018;5.584;2023-04-27T01:18:02;4.60;70.00
67769;DHT22;54569;52.018;5.584;2023-04-27T01:20:29;4.60;70.20
67769;DHT22;54569;52.018;5.584;2023-04-27T01:22:58;4.50;70.10
67769;DHT22;54569;52.018;5.584;2023-04-27T01:25:24;4.50;70.20
67769;DHT22;54569;52.018;5.584;2023-04-27T01:27:50;4.50;70.40
67769;DHT22;54569;52.018;5.584;2023-04-27T01:30:16;4.40;70.40
67769;DHT22;54569;52.018;5.584;2023-04-27T01:32:41;4.40;70.40
67769;DHT22;54569;52.018;5.584;2023-04-27T01:35:07;4.40;70.50
67769;DHT22;54569;52.018;5.584;2023-04-27T01:37:34;4.40;70.60
67769;DHT22;54569;52.018;5.584;2023-04-27T01:40:00;4.40;70.60
67769;DHT22;54569;52.018;5.584;2023-04-27T01:42:27;4.30;70.50
67769;DHT22;54569;52.018;5.584;2023-04-27T01:44:53;4.30;70.60
67769;DHT22;54569;52.018;5.584;2023-04-27T01:47:19;4.30;70.60
67769;DHT22;54569;52.018;5.584;2023-04-27T01:49:45;4.30;70.60
67769;DHT22;54569;52.018;5.584;2023-04-27T01:52:10;4.30;70.60
67769;DHT22;54569;52.018;5.584;2023-04-27T01:54:36;4.30;70.60
67769;DHT22;54569;52.018;5.584;2023-04-27T01:57:02;4.30;70.60
67769;DHT22;54569;52.018;5.584;2023-04-27T01:59:28;4.20;70.60
67769;DHT22;54569;52.018;5.584;2023-04-27T02:01:54;4.20;70.60
67769;DHT22;54569;52.018;5.584;2023-04-27T02:04:20;4.10;70.60
67769;DHT22;54569;52.018;5.584;2023-04-27T02:06:46;4.10;70.70
67769;DHT22;54569;52.018;5.584;2023-04-27T02:09:12;4.10;70.90
67769;DHT22;54569;52.018;5.584;2023-04-27T02:11:39;4.10;71.60
67769;DHT22;54569;52.018;5.584;2023-04-27T02:14:05;4.10;71.10
67769;DHT22;54569;52.018;5.584;2023-04-27T02:16:30;4.00;71.00
67769;DHT22;54569;52.018;5.584;2023-04-27T02:18:56;4.00;71.10
67769;DHT22;54569;52.018;5.584;2023-04-27T02:21:23;4.00;71.20
67769;DHT22;54569;52.018;5.584;2023-04-27T02:23:49;4.00;71.10
67769;DHT22;54569;52.018;5.584;2023-04-27T02:26:20;3.90;71.20
67769;DHT22;54569;52.018;5.584;2023-04-27T02:28:47;3.90;71.30
67769;DHT22;54569;52.018;5.584;2023-04-27T02:31:14;3.90;71.30
67769;DHT22;54569;52.018;5.584;2023-04-27T02:33:40;3.90;71.30
67769;DHT22;54569;52.018;5.584;2023-04-27T02:36:07;3.90;71.50
67769;DHT22;54569;52.018;5.584;2023-04-27T02:38:33;3.80;71.50
67769;DHT22;54569;52.018;5.584;2023-04-27T02:40:59;3.80;71.50
67769;DHT22;54569;52.018;5.584;2023-04-27T02:43:26;3.80;71.50
67769;DHT22;54569;52.018;5.584;2023-04-27T02:45:51;3.80;71.50
67769;DHT22;54569;52.018;5.584;2023-04-27T02:48:17;3.80;71.50
67769;DHT22;54569;52.018;5.584;2023-04-27T02:50:44;3.80;71.50
67769;DHT22;54569;52.018;5.584;2023-04-27T02:53:10;3.70;72.00
67769;DHT22;54569;52.018;5.584;2023-04-27T02:55:37;3.70;71.40
67769;DHT22;54569;52.018;5.584;2023-04-27T02:58:03;3.70;71.50
67769;DHT22;54569;52.018;5.584;2023-04-27T03:00:29;3.70;71.50
67769;DHT22;54569;52.018;5.584;2023-04-27T03:02:55;3.70;71.60
67769;DHT22;54569;52.018;5.584;2023-04-27T03:05:24;3.70;71.70
67769;DHT22;54569;52.018;5.584;2023-04-27T03:07:50;3.70;71.70
67769;DHT22;54569;52.018;5.584;2023-04-27T03:10:15;3.60;71.60
67769;DHT22;54569;52.018;5.584;2023-04-27T03:12:41;3.60;71.70
67769;DHT22;54569;52.018;5.584;2023-04-27T03:15:08;3.60;71.90
67769;DHT22;54569;52.018;5.584;2023-04-27T03:17:35;3.50;71.90
67769;DHT22;54569;52.018;5.584;2023-04-27T03:20:00;3.50;72.50
67769;DHT22;54569;52.018;5.584;2023-04-27T03:22:26;3.50;72.00
67769;DHT22;54569;52.018;5.584;2023-04-27T03:24:52;3.50;72.10
67769;DHT22;54569;52.018;5.584;2023-04-27T03:27:18;3.50;72.10
67769;DHT22;54569;52.018;5.584;2023-04-27T03:29:43;3.40;72.20
67769;DHT22;54569;52.018;5.584;2023-04-27T03:32:10;3.40;72.20
67769;DHT22;54569;52.018;5.584;2023-04-27T03:34:36;3.40;72.20
67769;DHT22;54569;52.018;5.584;2023-04-27T03:37:02;3.40;72.30
67769;DHT22;54569;52.018;5.584;2023-04-27T03:39:28;3.40;72.30
67769;DHT22;54569;52.018;5.584;2023-04-27T03:41:53;3.30;72.30
67769;DHT22;54569;52.018;5.584;2023-04-27T03:44:19;3.30;72.40
67769;DHT22;54569;52.018;5.584;2023-04-27T03:46:45;3.30;72.50
67769;DHT22;54569;52.018;5.584;2023-04-27T03:49:11;3.30;72.50
67769;DHT22;54569;52.018;5.584;2023-04-27T03:51:36;3.30;72.40
67769;DHT22;54569;52.018;5.584;2023-04-27T03:54:06;3.30;72.50
67769;DHT22;54569;52.018;5.584;2023-04-27T03:56:32;3.30;72.50
67769;DHT22;54569;52.018;5.584;2023-04-27T03:58:58;3.30;72.60
67769;DHT22;54569;52.018;5.584;2023-04-27T04:01:32;3.30;72.60
67769;DHT22;54569;52.018;5.584;2023-04-27T04:03:58;3.30;72.60
67769;DHT22;54569;52.018;5.584;2023-04-27T04:06:24;3.30;72.60
67769;DHT22;54569;52.018;5.584;2023-04-27T04:08:50;3.30;72.60
67769;DHT22;54569;52.018;5.584;2023-04-27T04:11:16;3.30;72.70
67769;DHT22;54569;52.018;5.584;2023-04-27T04:13:42;3.30;72.70
67769;DHT22;54569;52.018;5.584;2023-04-27T04:16:08;3.20;72.70
67769;DHT22;54569;52.018;5.584;2023-04-27T04:18:35;3.20;72.60
67769;DHT22;54569;52.018;5.584;2023-04-27T04:21:02;3.20;72.70
67769;DHT22;54569;52.018;5.584;2023-04-27T04:23:28;3.30;72.70
67769;DHT22;54569;52.018;5.584;2023-04-27T04:25:56;3.20;73.20
67769;DHT22;54569;52.018;5.584;2023-04-27T04:28:24;3.20;72.60
67769;DHT22;54569;52.018;5.584;2023-04-27T04:30:50;3.20;72.70
67769;DHT22;54569;52.018;5.584;2023-04-27T04:33:17;3.20;72.70
67769;DHT22;54569;52.018;5.584;2023-04-27T04:35:45;3.20;72.70
67769;DHT22;54569;52.018;5.584;2023-04-27T04:38:11;3.20;72.70
67769;DHT22;54569;52.018;5.584;2023-04-27T04:40:39;3.20;72.70
67769;DHT22;54569;52.018;5.584;2023-04-27T04:43:06;3.20;72.60
67769;DHT22;54569;52.018;5.584;2023-04-27T04:45:32;3.20;72.60
67769;DHT22;54569;52.018;5.584;2023-04-27T04:47:58;3.20;72.50
67769;DHT22;54569;52.018;5.584;2023-04-27T04:50:25;3.20;72.50
67769;DHT22;54569;52.018;5.584;2023-04-27T04:52:51;3.20;72.40
67769;DHT22;54569;52.018;5.584;2023-04-27T04:55:17;3.20;72.50
67769;DHT22;54569;52.018;5.584;2023-04-27T04:57:44;3.20;72.60
67769;DHT22;54569;52.018;5.584;2023-04-27T05:00:10;3.20;72.50
67769;DHT22;54569;52.018;5.584;2023-04-27T05:02:39;3.20;72.50
67769;DHT22;54569;52.018;5.584;2023-04-27T05:05:05;3.30;72.40
67769;DHT22;54569;52.018;5.584;2023-04-27T05:07:32;3.30;72.40
67769;DHT22;54569;52.018;5.584;2023-04-27T05:09:58;3.30;72.30
67769;DHT22;54569;52.018;5.584;2023-04-27T05:12:23;3.40;72.20
67769;DHT22;54569;52.018;5.584;2023-04-27T05:14:50;3.50;72.20
67769;DHT22;54569;52.018;5.584;2023-04-27T05:17:16;3.50;72.00
67769;DHT22;54569;52.018;5.584;2023-04-27T05:19:41;3.60;72.00
67769;DHT22;54569;52.018;5.584;2023-04-27T05:22:07;3.70;71.90
67769;DHT22;54569;52.018;5.584;2023-04-27T05:24:33;3.70;71.80
67769;DHT22;54569;52.018;5.584;2023-04-27T05:26:59;3.80;71.80
67769;DHT22;54569;52.018;5.584;2023-04-27T05:29:24;3.90;71.80
67769;DHT22;54569;52.018;5.584;2023-04-27T05:31:51;3.90;71.60
67769;DHT22;54569;52.018;5.584;2023-04-27T05:34:18;4.00;71.60
67769;DHT22;54569;52.018;5.584;2023-04-27T05:36:43;4.10;71.50
67769;DHT22;54569;52.018;5.584;2023-04-27T05:39:11;4.10;71.30
67769;DHT22;54569;52.018;5.584;2023-04-27T05:41:37;4.20;71.20
67769;DHT22;54569;52.018;5.584;2023-04-27T05:44:03;4.20;71.10
67769;DHT22;54569;52.018;5.584;2023-04-27T05:46:28;4.30;71.00
67769;DHT22;54569;52.018;5.584;2023-04-27T05:48:54;4.40;71.00
67769;DHT22;54569;52.018;5.584;2023-04-27T05:51:20;4.50;70.90
67769;DHT22;54569;52.018;5.584;2023-04-27T05:53:46;4.60;70.90
67769;DHT22;54569;52.018;5.584;2023-04-27T05:56:11;4.70;70.70
67769;DHT22;54569;52.018;5.584;2023-04-27T05:58:37;4.70;70.50
67769;DHT22;54569;52.018;5.584;2023-04-27T06:01:02;4.80;70.40
67769;DHT22;54569;52.018;5.584;2023-04-27T06:03:29;4.90;70.30
67769;DHT22;54569;52.018;5.584;2023-04-27T06:05:57;5.00;70.10
67769;DHT22;54569;52.018;5.584;2023-04-27T06:08:22;5.10;69.80
67769;DHT22;54569;52.018;5.584;2023-04-27T06:10:49;5.20;69.70
67769;DHT22;54569;52.018;5.584;2023-04-27T06:13:15;5.30;69.60
67769;DHT22;54569;52.018;5.584;2023-04-27T06:15:41;5.30;69.50
67769;DHT22;54569;52.018;5.584;2023-04-27T06:18:07;5.40;69.70
67769;DHT22;54569;52.018;5.584;2023-04-27T06:20:33;5.40;69.30
67769;DHT22;54569;52.018;5.584;2023-04-27T06:22:59;5.40;69.20
67769;DHT22;54569;52.018;5.584;2023-04-27T06:25:25;5.50;69.40
67769;DHT22;54569;52.018;5.584;2023-04-27T06:27:54;5.50;69.40
67769;DHT22;54569;52.018;5.584;2023-04-27T06:30:21;5.60;69.30
67769;DHT22;54569;52.018;5.584;2023-04-27T06:32:47;5.70;69.20
67769;DHT22;54569;52.018;5.584;2023-04-27T06:35:14;5.80;69.10
67769;DHT22;54569;52.018;5.584;2023-04-27T06:37:39;5.90;69.10
67769;DHT22;54569;52.018;5.584;2023-04-27T06:40:05;6.00;69.00
67769;DHT22;54569;52.018;5.584;2023-04-27T06:42:32;6.10;68.80
67769;DHT22;54569;52.018;5.584;2023-04-27T06:44:58;6.20;68.80
67769;DHT22;54569;52.018;5.584;2023-04-27T06:47:24;6.30;68.50
67769;DHT22;54569;52.018;5.584;2023-04-27T06:49:50;6.40;68.40
67769;DHT22;54569;52.018;5.584;2023-04-27T06:52:15;6.50;68.50
67769;DHT22;54569;52.018;5.584;2023-04-27T06:54:41;6.60;68.10
67769;DHT22;54569;52.018;5.584;2023-04-27T06:57:07;6.70;67.90
67769;DHT22;54569;52.018;5.584;2023-04-27T06:59:34;6.80;67.70
67769;DHT22;54569;52.018;5.584;2023-04-27T07:01:59;6.90;68.20
67769;DHT22;54569;52.018;5.584;2023-04-27T07:04:25;7.10;66.80
67769;DHT22;54569;52.018;5.584;2023-04-27T07:06:51;7.20;66.70
67769;DHT22;54569;52.018;5.584;2023-04-27T07:09:17;7.30;66.10
67769;DHT22;54569;52.018;5.584;2023-04-27T07:11:42;7.50;66.10
67769;DHT22;54569;52.018;5.584;2023-04-27T07:14:08;7.60;66.00
67769;DHT22;54569;52.018;5.584;2023-04-27T07:16:34;7.80;65.50
67769;DHT22;54569;52.018;5.584;2023-04-27T07:19:00;7.90;64.80
67769;DHT22;54569;52.018;5.584;2023-04-27T07:21:26;8.00;64.60
67769;DHT22;54569;52.018;5.584;2023-04-27T07:23:53;8.20;64.80
67769;DHT22;54569;52.018;5.584;2023-04-27T07:26:19;8.30;64.50
67769;DHT22;54569;52.018;5.584;2023-04-27T07:28:45;8.40;64.20
67769;DHT22;54569;52.018;5.584;2023-04-27T07:31:11;8.60;63.80
67769;DHT22;54569;52.018;5.584;2023-04-27T07:33:38;8.70;63.50
67769;DHT22;54569;52.018;5.584;2023-04-27T07:36:04;8.80;63.10
67769;DHT22;54569;52.018;5.584;2023-04-27T07:38:30;8.80;63.50
67769;DHT22;54569;52.018;5.584;2023-04-27T07:41:02;8.90;62.80
67769;DHT22;54569;52.018;5.584;2023-04-27T07:43:30;9.10;62.40
67769;DHT22;54569;52.018;5.584;2023-04-27T07:45:57;9.10;62.30
67769;DHT22;54569;52.018;5.584;2023-04-27T07:48:26;9.20;62.10
67769;DHT22;54569;52.018;5.584;2023-04-27T07:50:53;9.30;62.00
67769;DHT22;54569;52.018;5.584;2023-04-27T07:53:18;9.40;61.90
67769;DHT22;54569;52.018;5.584;2023-04-27T07:55:44;9.60;61.80
67769;DHT22;54569;52.018;5.584;2023-04-27T07:58:10;9.70;61.40
67769;DHT22;54569;52.018;5.584;2023-04-27T08:00:36;9.90;61.10
67769;DHT22;54569;52.018;5.584;2023-04-27T08:03:02;10.00;61.00
67769;DHT22;54569;52.018;5.584;2023-04-27T08:05:28;10.20;60.70
67769;DHT22;54569;52.018;5.584;2023-04-27T08:07:53;10.20;60.30
67769;DHT22;54569;52.018;5.584;2023-04-27T08:10:19;10.40;60.20
67769;DHT22;54569;52.018;5.584;2023-04-27T08:12:45;10.50;59.90
67769;DHT22;54569;52.018;5.584;2023-04-27T08:15:11;10.50;60.10
67769;DHT22;54569;52.018;5.584;2023-04-27T08:17:37;10.80;60.00
67769;DHT22;54569;52.018;5.584;2023-04-27T08:20:05;11.00;59.80
67769;DHT22;54569;52.018;5.584;2023-04-27T08:22:32;11.20;59.20
67769;DHT22;54569;52.018;5.584;2023-04-27T08:24:58;11.40;58.90
67769;DHT22;54569;52.018;5.584;2023-04-27T08:27:24;11.60;58.60
67769;DHT22;54569;52.018;5.584;2023-04-27T08:29:50;11.80;58.30
67769;DHT22;54569;52.018;5.584;2023-04-27T08:32:16;11.90;58.70
67769;DHT22;54569;52.018;5.584;2023-04-27T08:34:41;12.00;58.40
67769;DHT22;54569;52.018;5.584;2023-04-27T08:37:09;12.30;58.10
67769;DHT22;54569;52.018;5.584;2023-04-27T08:39:35;12.40;57.80
67769;DHT22;54569;52.018;5.584;2023-04-27T08:42:00;12.60;57.30
67769;DHT22;54569;52.018;5.584;2023-04-27T08:44:26;12.80;57.60
67769;DHT22;54569;52.018;5.584;2023-04-27T08:46:52;13.00;57.10
67769;DHT22;54569;52.018;5.584;2023-04-27T08:49:18;13.00;56.90
67769;DHT22;54569;52.018;5.584;2023-04-27T08:51:46;13.10;56.50
67769;DHT22;54569;52.018;5.584;2023-04-27T08:54:12;13.30;57.00
67769;DHT22;54569;52.018;5.584;2023-04-27T08:56:38;13.40;57.00
67769;DHT22;54569;52.018;5.584;2023-04-27T08:59:13;13.40;56.80
67769;DHT22;54569;52.018;5.584;2023-04-27T09:01:45;13.60;53.90
67769;DHT22;54569;52.018;5.584;2023-04-27T09:04:12;13.70;56.40
67769;DHT22;54569;52.018;5.584;2023-04-27T09:06:38;13.90;56.70
67769;DHT22;54569;52.018;5.584;2023-04-27T09:09:04;14.10;56.00
67769;DHT22;54569;52.018;5.584;2023-04-27T09:11:36;14.30;56.20
67769;DHT22;54569;52.018;5.584;2023-04-27T09:14:21;14.50;55.50
67769;DHT22;54569;52.018;5.584;2023-04-27T09:16:57;14.80;55.90
67769;DHT22;54569;52.018;5.584;2023-04-27T09:19:28;14.90;54.00
67769;DHT22;54569;52.018;5.584;2023-04-27T09:22:07;15.00;55.00
67769;DHT22;54569;52.018;5.584;2023-04-27T09:24:35;14.90;54.10
67769;DHT22;54569;52.018;5.584;2023-04-27T09:27:01;14.90;55.30
67769;DHT22;54569;52.018;5.584;2023-04-27T09:29:37;15.00;55.90
67769;DHT22;54569;52.018;5.584;2023-04-27T09:32:15;15.10;53.60
67769;DHT22;54569;52.018;5.584;2023-04-27T09:34:41;15.30;53.70
67769;DHT22;54569;52.018;5.584;2023-04-27T09:37:08;15.40;54.90
67769;DHT22;54569;52.018;5.584;2023-04-27T09:39:35;15.70;54.30
67769;DHT22;54569;52.018;5.584;2023-04-27T09:42:01;15.90;54.60
67769;DHT22;54569;52.018;5.584;2023-04-27T09:44:29;16.00;54.30
67769;DHT22;54569;52.018;5.584;2023-04-27T09:46:58;16.20;54.00
67769;DHT22;54569;52.018;5.584;2023-04-27T09:49:25;16.50;53.60
67769;DHT22;54569;52.018;5.584;2023-04-27T09:51:51;16.70;53.50
67769;DHT22;54569;52.018;5.584;2023-04-27T09:54:19;16.80;53.40
67769;DHT22;54569;52.018;5.584;2023-04-27T09:57:17;16.90;53.00
67769;DHT22;54569;52.018;5.584;2023-04-27T10:02:18;17.30;50.60
67769;DHT22;54569;52.018;5.584;2023-04-27T10:07:21;17.40;51.80
67769;DHT22;54569;52.018;5.584;2023-04-27T10:09:48;17.40;52.90
67769;DHT22;54569;52.018;5.584;2023-04-27T10:14:55;17.50;52.30
67769;DHT22;54569;52.018;5.584;2023-04-27T10:17:31;17.60;51.90
67769;DHT22;54569;52.018;5.584;2023-04-27T10:19:58;17.70;49.60
67769;DHT22;54569;52.018;5.584;2023-04-27T10:22:46;17.90;51.80
67769;DHT22;54569;52.018;5.584;2023-04-27T10:25:23;18.10;49.30
67769;DHT22;54569;52.018;5.584;2023-04-27T10:27:59;18.40;50.50
67769;DHT22;54569;52.018;5.584;2023-04-27T10:30:33;18.50;51.40
67769;DHT22;54569;52.018;5.584;2023-04-27T10:33:05;18.60;49.50
67769;DHT22;54569;52.018;5.584;2023-04-27T10:38:28;18.70;51.20
67769;DHT22;54569;52.018;5.584;2023-04-27T10:40:56;19.00;46.30
67769;DHT22;54569;52.018;5.584;2023-04-27T10:43:27;19.10;50.20
67769;DHT22;54569;52.018;5.584;2023-04-27T10:45:54;19.00;48.70
67769;DHT22;54569;52.018;5.584;2023-04-27T10:48:20;19.30;50.60
67769;DHT22;54569;52.018;5.584;2023-04-27T10:50:49;19.50;50.00
67769;DHT22;54569;52.018;5.584;2023-04-27T10:53:15;19.70;49.90
67769;DHT22;54569;52.018;5.584;2023-04-27T10:55:41;20.00;49.50
67769;DHT22;54569;52.018;5.584;2023-04-27T10:58:07;20.50;49.40
67769;DHT22;54569;52.018;5.584;2023-04-27T11:00:35;20.70;49.10
67769;DHT22;54569;52.018;5.584;2023-04-27T11:03:17;20.90;48.70
67769;DHT22;54569;52.018;5.584;2023-04-27T11:05:46;20.90;44.90
67769;DHT22;54569;52.018;5.584;2023-04-27T11:08:16;21.40;46.80
67769;DHT22;54569;52.018;5.584;2023-04-27T11:10:44;22.00;45.10
67769;DHT22;54569;52.018;5.584;2023-04-27T11:13:15;22.70;44.80
67769;DHT22;54569;52.018;5.584;2023-04-27T11:15:48;23.80;42.50
67769;DHT22;54569;52.018;5.584;2023-04-27T11:18:16;24.60;41.30
67769;DHT22;54569;52.018;5.584;2023-04-27T11:20:47;25.30;40.70
67769;DHT22;54569;52.018;5.584;2023-04-27T11:23:30;25.90;39.30
67769;DHT22;54569;52.018;5.584;2023-04-27T11:26:18;27.00;35.60
67769;DHT22;54569;52.018;5.584;2023-04-27T11:31:25;28.40;37.10
67769;DHT22;54569;52.018;5.584;2023-04-27T11:33:51;28.60;36.60
67769;DHT22;54569;52.018;5.584;2023-04-27T11:36:18;28.60;36.70
67769;DHT22;54569;52.018;5.584;2023-04-27T11:38:44;29.00;36.40
67769;DHT22;54569;52.018;5.584;2023-04-27T11:41:10;29.20;35.70
67769;DHT22;54569;52.018;5.584;2023-04-27T11:43:40;29.10;35.80
67769;DHT22;54569;52.018;5.584;2023-04-27T11:46:06;29.40;33.60
67769;DHT22;54569;52.018;5.584;2023-04-27T11:48:39;29.60;35.80
67769;DHT22;54569;52.018;5.584;2023-04-27T11:51:10;29.40;34.40
67769;DHT22;54569;52.018;5.584;2023-04-27T11:53:38;28.90;36.10
67769;DHT22;54569;52.018;5.584;2023-04-27T11:56:05;28.70;36.10
67769;DHT22;54569;52.018;5.584;2023-04-27T11:58:36;28.70;36.30
67769;DHT22;54569;52.018;5.584;2023-04-27T12:01:03;28.50;36.20
67769;DHT22;54569;52.018;5.584;2023-04-27T12:03:29;28.50;35.80
67769;DHT22;54569;52.018;5.584;2023-04-27T12:05:56;28.40;35.60
67769;DHT22;54569;52.018;5.584;2023-04-27T12:08:22;28.10;35.70
67769;DHT22;54569;52.018;5.584;2023-04-27T12:10:48;27.90;35.90
67769;DHT22;54569;52.018;5.584;2023-04-27T12:13:14;26.50;37.60
67769;DHT22;54569;52.018;5.584;2023-04-27T12:15:40;25.00;38.80
67769;DHT22;54569;52.018;5.584;2023-04-27T12:18:07;23.70;40.80
67769;DHT22;54569;52.018;5.584;2023-04-27T12:20:34;22.80;41.60
67769;DHT22;54569;52.018;5.584;2023-04-27T12:22:59;21.90;42.10
67769;DHT22;54569;52.018;5.584;2023-04-27T12:25:25;20.90;43.70
67769;DHT22;54569;52.018;5.584;2023-04-27T12:27:51;20.10;44.00
67769;DHT22;54569;52.018;5.584;2023-04-27T12:30:18;19.60;44.80
67769;DHT22;54569;52.018;5.584;2023-04-27T12:32:44;19.20;44.50
67769;DHT22;54569;52.018;5.584;2023-04-27T12:35:09;18.60;45.20
67769;DHT22;54569;52.018;5.584;2023-04-27T12:37:35;18.30;45.00
67769;DHT22;54569;52.018;5.584;2023-04-27T12:40:02;18.00;45.10
67769;DHT22;54569;52.018;5.584;2023-04-27T12:42:31;17.80;45.40
67769;DHT22;54569;52.018;5.584;2023-04-27T12:44:57;17.50;45.10
67769;DHT22;54569;52.018;5.584;2023-04-27T12:47:23;17.50;45.00
67769;DHT22;54569;52.018;5.584;2023-04-27T12:49:48;17.50;44.40
67769;DHT22;54569;52.018;5.584;2023-04-27T12:52:15;17.30;44.40
67769;DHT22;54569;52.018;5.584;2023-04-27T12:54:41;17.00;44.10
67769;DHT22;54569;52.018;5.584;2023-04-27T12:57:06;16.80;45.10
67769;DHT22;54569;52.018;5.584;2023-04-27T12:59:33;16.70;44.60
67769;DHT22;54569;52.018;5.584;2023-04-27T13:02:00;16.60;44.10
67769;DHT22;54569;52.018;5.584;2023-04-27T13:04:27;16.50;44.30
67769;DHT22;54569;52.018;5.584;2023-04-27T13:06:53;16.50;44.20
67769;DHT22;54569;52.018;5.584;2023-04-27T13:09:19;16.40;43.90
67769;DHT22;54569;52.018;5.584;2023-04-27T13:11:46;16.30;44.00
67769;DHT22;54569;52.018;5.584;2023-04-27T13:14:12;16.30;44.10
67769;DHT22;54569;52.018;5.584;2023-04-27T13:16:38;16.40;43.80
67769;DHT22;54569;52.018;5.584;2023-04-27T13:19:04;16.40;43.80
67769;DHT22;54569;52.018;5.584;2023-04-27T13:21:30;16.40;43.90
67769;DHT22;54569;52.018;5.584;2023-04-27T13:23:55;16.40;43.90
67769;DHT22;54569;52.018;5.584;2023-04-27T13:26:21;16.40;43.60
67769;DHT22;54569;52.018;5.584;2023-04-27T13:28:48;16.40;43.30
67769;DHT22;54569;52.018;5.584;2023-04-27T13:31:14;16.40;43.20
67769;DHT22;54569;52.018;5.584;2023-04-27T13:33:43;16.40;43.10
67769;DHT22;54569;52.018;5.584;2023-04-27T13:36:10;16.40;42.60
67769;DHT22;54569;52.018;5.584;2023-04-27T13:38:36;16.30;42.60
67769;DHT22;54569;52.018;5.584;2023-04-27T13:41:02;16.30;43.20
67769;DHT22;54569;52.018;5.584;2023-04-27T13:43:28;16.30;43.20
67769;DHT22;54569;52.018;5.584;2023-04-27T13:45:56;16.10;43.40
67769;DHT22;54569;52.018;5.584;2023-04-27T13:48:22;16.10;43.40
67769;DHT22;54569;52.018;5.584;2023-04-27T13:50:47;16.00;43.20
67769;DHT22;54569;52.018;5.584;2023-04-27T13:53:13;16.00;43.40
67769;DHT22;54569;52.018;5.584;2023-04-27T13:55:41;16.20;43.50
67769;DHT22;54569;52.018;5.584;2023-04-27T13:58:07;16.40;43.10
67769;DHT22;54569;52.018;5.584;2023-04-27T14:00:33;16.40;43.00
67769;DHT22;54569;52.018;5.584;2023-04-27T14:02:59;16.50;42.90
67769;DHT22;54569;52.018;5.584;2023-04-27T14:05:25;16.60;42.60
67769;DHT22;54569;52.018;5.584;2023-04-27T14:07:51;16.60;42.50
67769;DHT22;54569;52.018;5.584;2023-04-27T14:10:18;16.60;42.30
67769;DHT22;54569;52.018;5.584;2023-04-27T14:12:44;16.50;42.30
67769;DHT22;54569;52.018;5.584;2023-04-27T14:15:10;16.40;42.40
67769;DHT22;54569;52.018;5.584;2023-04-27T14:17:36;16.30;42.50
67769;DHT22;54569;52.018;5.584;2023-04-27T14:20:02;16.20;43.00
67769;DHT22;54569;52.018;5.584;2023-04-27T14:22:34;16.20;43.00
67769;DHT22;54569;52.018;5.584;2023-04-27T14:25:01;16.40;42.80
67769;DHT22;54569;52.018;5.584;2023-04-27T14:27:26;16.20;42.60
67769;DHT22;54569;52.018;5.584;2023-04-27T14:29:52;16.20;43.00
67769;DHT22;54569;52.018;5.584;2023-04-27T14:32:18;16.30;42.70
67769;DHT22;54569;52.018;5.584;2023-04-27T14:34:44;16.20;42.20
67769;DHT22;54569;52.018;5.584;2023-04-27T14:37:09;16.10;42.50
67769;DHT22;54569;52.018;5.584;2023-04-27T14:39:35;16.00;42.50
67769;DHT22;54569;52.018;5.584;2023-04-27T14:42:01;16.10;42.80
67769;DHT22;54569;52.018;5.584;2023-04-27T14:44:28;16.20;42.50
67769;DHT22;54569;52.018;5.584;2023-04-27T14:46:55;16.20;42.50
67769;DHT22;54569;52.018;5.584;2023-04-27T14:49:22;16.10;42.40
67769;DHT22;54569;52.018;5.584;2023-04-27T14:51:48;16.10;42.50
67769;DHT22;54569;52.018;5.584;2023-04-27T14:54:14;16.10;42.40
67769;DHT22;54569;52.018;5.584;2023-04-27T14:56:39;16.20;42.60
67769;DHT22;54569;52.018;5.584;2023-04-27T14:59:05;16.10;42.30
67769;DHT22;54569;52.018;5.584;2023-04-27T15:01:31;16.10;42.50
67769;DHT22;54569;52.018;5.584;2023-04-27T15:03:57;16.10;42.50
67769;DHT22;54569;52.018;5.584;2023-04-27T15:06:23;16.10;42.70
67769;DHT22;54569;52.018;5.584;2023-04-27T15:08:53;16.20;42.30
67769;DHT22;54569;52.018;5.584;2023-04-27T15:11:19;16.10;42.20
67769;DHT22;54569;52.018;5.584;2023-04-27T15:13:45;15.90;42.30
67769;DHT22;54569;52.018;5.584;2023-04-27T15:16:11;15.90;42.60
67769;DHT22;54569;52.018;5.584;2023-04-27T15:18:37;15.80;42.30
67769;DHT22;54569;52.018;5.584;2023-04-27T15:21:02;15.70;42.30
67769;DHT22;54569;52.018;5.584;2023-04-27T15:23:29;15.70;42.40
67769;DHT22;54569;52.018;5.584;2023-04-27T15:25:56;15.60;42.70
67769;DHT22;54569;52.018;5.584;2023-04-27T15:28:22;15.60;42.40
67769;DHT22;54569;52.018;5.584;2023-04-27T15:30:48;15.50;42.40
67769;DHT22;54569;52.018;5.584;2023-04-27T15:33:14;15.50;42.40
67769;DHT22;54569;52.018;5.584;2023-04-27T15:35:40;15.50;42.50
67769;DHT22;54569;52.018;5.584;2023-04-27T15:38:09;15.50;42.50
67769;DHT22;54569;52.018;5.584;2023-04-27T15:40:35;15.50;42.20
67769;DHT22;54569;52.018;5.584;2023-04-27T15:43:01;15.50;42.30
67769;DHT22;54569;52.018;5.584;2023-04-27T15:45:28;15.50;42.40
67769;DHT22;54569;52.018;5.584;2023-04-27T15:47:54;15.50;42.60